Time;durP1;ratioP1;P1;durP2;ratioP2;P2;SDS_P1;SDS_P2;PMS_P1;PMS_P2;Temp;Humidity;BMP_temperature;BMP_pressure;BME280_temperature;BME280_humidity;BME280_pressure;Samples;Min_cycle;Max_cycle;Signal;HPM_P1;HPM_P2
2022/01/06 00:01:27;;;;;;;8.23;2.97;;;;;;;;;;8360617;28;20024;-68
2022/01/06 00:05:27;;;;;;;6.85;2.72;;;;;;;;;;8359055;28;20025;-68
2022/01/06 00:09:27;;;;;;;7.13;2.50;;;;;;;;;;8361307;28;20520;-68
2022/01/06 00:13:50;;;;;;;10.75;2.80;;;;;;;;;;8359049;28;20021;-68
2022/01/06 00:18:42;;;;;;;5.78;2.47;;;;;;;;;;8359431;28;20036;-67
2022/01/06 00:26:32;;;;;;;5.30;2.30;;;;;;;;;;8365967;28;20128;-68
2022/01/06 00:30:32;;;;;;;5.95;2.50;;;;;;;;;;8365354;28;20056;-68
2022/01/06 00:34:32;;;;;;;8.02;2.85;;;;;;;;;;8364765;28;20059;-68
2022/01/06 00:38:33;;;;;;;5.75;2.47;;;;;;;;;;8363819;28;20039;-68
2022/01/06 00:42:33;;;;;;;7.20;2.60;;;;;;;;;;8365266;28;20021;-68
2022/01/06 00:46:33;;;;;;;5.57;2.30;;;;;;;;;;8365425;28;20294;-68
2022/01/06 00:50:34;;;;;;;4.97;2.33;;;;;;;;;;8364728;28;20016;-67
2022/01/06 00:54:34;;;;;;;8.15;2.90;;;;;;;;;;8364302;28;20837;-67
2022/01/06 00:58:34;;;;;;;4.43;2.03;;;;;;;;;;8363702;28;20453;-67
2022/01/06 01:02:34;;;;;;;4.15;2.10;;;;;;;;;;8362340;28;20123;-68
2022/01/06 01:06:35;;;;;;;4.47;2.00;;;;;;;;;;8364513;28;21012;-68
2022/01/06 01:10:35;;;;;;;3.60;2.47;;;;;;;;;;8364308;28;20260;-68
2022/01/06 01:14:52;;;;;;;5.18;2.13;;;;;;;;;;8364330;28;20069;-68
2022/01/06 01:18:52;;;;;;;8.48;2.30;;;;;;;;;;8360892;28;20796;-68
2022/01/06 01:22:52;;;;;;;8.27;2.03;;;;;;;;;;8362023;28;20036;-68
2022/01/06 01:26:53;;;;;;;5.97;2.30;;;;;;;;;;8360220;28;20644;-68
2022/01/06 01:31:23;;;;;;;6.93;2.33;;;;;;;;;;8363624;28;20052;-67
2022/01/06 01:35:24;;;;;;;5.32;1.90;;;;;;;;;;8363820;28;20020;-68
2022/01/06 01:39:25;;;;;;;6.72;2.22;;;;;;;;;;8364039;28;20039;-68
2022/01/06 01:43:25;;;;;;;8.73;2.33;;;;;;;;;;8363089;28;20020;-68
2022/01/06 01:47:31;;;;;;;4.55;2.13;;;;;;;;;;8363019;28;20051;-68
2022/01/06 01:51:31;;;;;;;4.45;1.90;;;;;;;;;;8363297;28;20023;-68
2022/01/06 01:55:32;;;;;;;2.55;1.60;;;;;;;;;;8362993;28;20056;-68
2022/01/06 01:59:33;;;;;;;4.63;1.60;;;;;;;;;;8362757;28;20024;-67
2022/01/06 02:03:33;;;;;;;6.70;1.67;;;;;;;;;;8360480;28;20036;-68
2022/01/06 02:07:33;;;;;;;6.25;1.75;;;;;;;;;;8361426;28;20439;-68
2022/01/06 02:11:34;;;;;;;4.63;1.88;;;;;;;;;;8361391;28;20021;-68
2022/01/06 02:15:34;;;;;;;2.75;1.30;;;;;;;;;;8361279;28;20067;-68
2022/01/06 02:19:34;;;;;;;3.83;1.40;;;;;;;;;;8361097;28;20028;-67
2022/01/06 02:23:34;;;;;;;6.60;1.67;;;;;;;;;;8362395;28;20286;-68
2022/01/06 02:27:34;;;;;;;3.25;1.40;;;;;;;;;;8362285;28;20537;-68
2022/01/06 02:31:38;;;;;;;2.95;1.50;;;;;;;;;;8361862;28;20464;-67
2022/01/06 02:35:39;;;;;;;2.72;1.48;;;;;;;;;;8360828;28;20025;-68
2022/01/06 02:39:40;;;;;;;5.97;1.70;;;;;;;;;;8360921;28;20539;-68
2022/01/06 02:43:40;;;;;;;3.78;1.33;;;;;;;;;;8361302;28;20036;-68
2022/01/06 02:47:40;;;;;;;6.50;1.70;;;;;;;;;;8360426;28;20028;-68
2022/01/06 02:51:41;;;;;;;4.10;1.40;;;;;;;;;;8362690;28;20035;-68
2022/01/06 02:55:47;;;;;;;3.10;1.50;;;;;;;;;;8360415;28;20757;-68
2022/01/06 02:59:48;;;;;;;7.50;1.58;;;;;;;;;;8361825;28;20884;-68
2022/01/06 03:03:48;;;;;;;5.85;1.50;;;;;;;;;;8360940;28;20104;-68
2022/01/06 03:07:48;;;;;;;3.03;1.40;;;;;;;;;;8358833;28;20039;-67
2022/01/06 03:11:48;;;;;;;5.10;1.25;;;;;;;;;;8362510;28;20303;-68
2022/01/06 03:15:49;;;;;;;8.60;1.85;;;;;;;;;;8359682;28;21075;-68
2022/01/06 03:19:49;;;;;;;7.20;1.35;;;;;;;;;;8360498;28;20033;-68
2022/01/06 03:23:49;;;;;;;3.37;1.30;;;;;;;;;;8363177;28;20028;-68
2022/01/06 03:27:49;;;;;;;2.85;1.05;;;;;;;;;;8367942;28;20305;-68
2022/01/06 03:31:50;;;;;;;5.55;1.60;;;;;;;;;;8366901;28;20131;-67
2022/01/06 03:35:50;;;;;;;6.10;1.50;;;;;;;;;;8367438;28;20031;-68
2022/01/06 03:39:50;;;;;;;8.90;1.48;;;;;;;;;;8367438;28;20075;-67
2022/01/06 03:43:50;;;;;;;8.77;1.77;;;;;;;;;;8365882;28;20881;-68
2022/01/06 03:47:50;;;;;;;7.28;1.35;;;;;;;;;;8366371;28;20043;-67
2022/01/06 03:51:51;;;;;;;5.30;1.23;;;;;;;;;;8366578;28;20329;-67
2022/01/06 03:55:51;;;;;;;7.75;1.67;;;;;;;;;;8366800;28;20025;-67
2022/01/06 03:59:51;;;;;;;8.70;1.48;;;;;;;;;;8367462;28;20274;-67
2022/01/06 04:03:51;;;;;;;4.80;1.10;;;;;;;;;;8365389;28;20037;-67
2022/01/06 04:07:51;;;;;;;7.75;1.77;;;;;;;;;;8366941;28;20031;-67
2022/01/06 04:11:51;;;;;;;8.48;1.70;;;;;;;;;;8366458;28;20042;-69
2022/01/06 04:15:52;;;;;;;5.03;1.45;;;;;;;;;;8363616;28;20532;-68
2022/01/06 04:19:52;;;;;;;6.80;1.40;;;;;;;;;;8365823;28;20689;-67
2022/01/06 04:23:52;;;;;;;8.25;1.40;;;;;;;;;;8365935;28;20067;-67
2022/01/06 04:27:52;;;;;;;8.18;1.42;;;;;;;;;;8366319;28;20115;-68
2022/01/06 04:31:52;;;;;;;10.15;1.58;;;;;;;;;;8364218;28;20245;-68
2022/01/06 04:35:53;;;;;;;7.32;1.50;;;;;;;;;;8364423;28;20024;-68
2022/01/06 04:39:53;;;;;;;6.85;1.48;;;;;;;;;;8365436;28;20028;-67
2022/01/06 04:43:53;;;;;;;4.35;1.23;;;;;;;;;;8366171;28;20090;-67
2022/01/06 04:47:53;;;;;;;3.50;1.00;;;;;;;;;;8360615;28;20045;-67
2022/01/06 04:51:53;;;;;;;6.03;1.30;;;;;;;;;;8365952;28;20020;-68
2022/01/06 04:55:56;;;;;;;5.80;0.93;;;;;;;;;;8364671;28;20028;-68
2022/01/06 04:59:56;;;;;;;7.72;1.52;;;;;;;;;;8364965;28;20323;-68
2022/01/06 05:03:56;;;;;;;6.90;1.20;;;;;;;;;;8362531;28;20712;-68
2022/01/06 05:07:56;;;;;;;5.20;1.23;;;;;;;;;;8363172;28;20131;-68
2022/01/06 05:11:56;;;;;;;7.05;1.50;;;;;;;;;;8362529;28;20102;-68
2022/01/06 05:15:57;;;;;;;7.27;1.33;;;;;;;;;;8362379;28;20570;-67
2022/01/06 05:19:57;;;;;;;4.47;1.23;;;;;;;;;;8363009;28;20778;-67
2022/01/06 05:23:57;;;;;;;8.35;1.40;;;;;;;;;;8364559;28;20925;-67
2022/01/06 05:27:57;;;;;;;5.30;1.40;;;;;;;;;;8362944;28;20032;-67
2022/01/06 05:31:57;;;;;;;7.55;1.30;;;;;;;;;;8362012;28;20501;-68
2022/01/06 05:35:58;;;;;;;10.07;1.60;;;;;;;;;;8362590;28;20119;-67
2022/01/06 05:39:58;;;;;;;8.68;1.60;;;;;;;;;;8364700;28;20036;-67
2022/01/06 05:43:58;;;;;;;8.20;1.55;;;;;;;;;;8362586;28;20040;-67
2022/01/06 05:47:59;;;;;;;9.52;1.55;;;;;;;;;;8360993;28;20059;-67
2022/01/06 05:51:59;;;;;;;6.82;1.40;;;;;;;;;;8362016;28;20031;-67
2022/01/06 05:56:00;;;;;;;5.78;1.40;;;;;;;;;;8363609;28;20024;-67
2022/01/06 06:00:00;;;;;;;12.83;1.53;;;;;;;;;;8363508;28;20035;-67
2022/01/06 06:04:00;;;;;;;12.35;1.83;;;;;;;;;;8360976;28;20320;-67
2022/01/06 06:08:00;;;;;;;6.20;1.60;;;;;;;;;;8361997;28;21083;-67
2022/01/06 06:12:00;;;;;;;10.23;1.83;;;;;;;;;;8361250;28;20040;-67
2022/01/06 06:16:01;;;;;;;10.30;2.42;;;;;;;;;;8360942;28;20043;-67
2022/01/06 06:20:02;;;;;;;12.85;2.00;;;;;;;;;;8363251;28;20440;-67
2022/01/06 06:24:03;;;;;;;10.70;2.00;;;;;;;;;;8363058;28;20151;-67
2022/01/06 06:28:03;;;;;;;7.03;1.70;;;;;;;;;;8359706;28;20043;-67
2022/01/06 06:32:04;;;;;;;5.90;1.33;;;;;;;;;;8361566;28;20040;-67
2022/01/06 06:36:05;;;;;;;11.68;1.92;;;;;;;;;;8361473;28;20033;-68
2022/01/06 06:40:06;;;;;;;4.00;1.05;;;;;;;;;;8363144;28;20193;-66
2022/01/06 06:44:06;;;;;;;14.32;1.92;;;;;;;;;;8360968;28;20036;-66
2022/01/06 06:48:07;;;;;;;9.45;1.50;;;;;;;;;;8359328;28;20068;-66
2022/01/06 06:52:07;;;;;;;11.13;1.45;;;;;;;;;;8362485;28;20013;-66
2022/01/06 06:56:08;;;;;;;8.32;1.70;;;;;;;;;;8361901;28;20074;-66
2022/01/06 07:00:09;;;;;;;16.77;2.65;;;;;;;;;;8365438;28;20024;-66
2022/01/06 07:04:09;;;;;;;8.32;1.65;;;;;;;;;;8367788;28;20043;-66
2022/01/06 07:08:09;;;;;;;7.60;1.60;;;;;;;;;;8366355;28;20033;-66
2022/01/06 07:12:09;;;;;;;14.88;3.47;;;;;;;;;;8368937;28;20028;-66
2022/01/06 07:16:10;;;;;;;9.00;2.67;;;;;;;;;;8367940;28;20036;-66
2022/01/06 07:20:10;;;;;;;8.77;1.75;;;;;;;;;;8367874;28;20289;-66
2022/01/06 07:24:10;;;;;;;12.32;2.22;;;;;;;;;;8366644;28;20063;-66
2022/01/06 07:28:11;;;;;;;9.43;2.28;;;;;;;;;;8367263;28;20449;-66
2022/01/06 07:32:11;;;;;;;11.80;5.17;;;;;;;;;;8366330;28;20047;-66
2022/01/06 07:36:11;;;;;;;9.05;3.33;;;;;;;;;;8366795;28;20263;-66
2022/01/06 07:40:12;;;;;;;13.05;3.08;;;;;;;;;;8366508;28;20039;-66
2022/01/06 07:44:12;;;;;;;7.03;2.17;;;;;;;;;;8366249;28;20144;-66
2022/01/06 07:48:17;;;;;;;17.52;2.70;;;;;;;;;;8366461;28;20047;-66
2022/01/06 07:52:18;;;;;;;10.43;2.00;;;;;;;;;;8365931;28;20526;-66
2022/01/06 07:56:18;;;;;;;8.63;2.45;;;;;;;;;;8365924;28;20013;-67
2022/01/06 08:00:19;;;;;;;8.70;1.85;;;;;;;;;;8366437;28;20478;-66
2022/01/06 08:04:19;;;;;;;10.98;2.85;;;;;;;;;;8365483;28;20063;-66
2022/01/06 08:08:19;;;;;;;14.30;3.03;;;;;;;;;;8366790;28;20036;-66
2022/01/06 08:12:19;;;;;;;11.67;2.53;;;;;;;;;;8365529;28;20477;-66
2022/01/06 08:16:19;;;;;;;13.30;2.30;;;;;;;;;;8364688;28;20275;-66
2022/01/06 08:20:19;;;;;;;13.60;2.13;;;;;;;;;;8366909;28;20043;-66
2022/01/06 08:24:20;;;;;;;9.20;2.58;;;;;;;;;;8366934;28;20037;-66
2022/01/06 08:28:20;;;;;;;12.63;2.38;;;;;;;;;;8364989;28;20033;-66
2022/01/06 08:32:20;;;;;;;18.90;3.13;;;;;;;;;;8364751;28;20090;-66
2022/01/06 08:36:20;;;;;;;17.85;3.05;;;;;;;;;;8365398;28;20386;-66
2022/01/06 08:40:21;;;;;;;19.15;2.78;;;;;;;;;;8366336;28;20516;-66
2022/01/06 08:44:21;;;;;;;12.85;2.10;;;;;;;;;;8365305;28;20078;-66
2022/01/06 08:48:21;;;;;;;20.90;3.55;;;;;;;;;;8364465;28;20045;-67
2022/01/06 08:52:22;;;;;;;9.55;2.15;;;;;;;;;;8364977;28;20024;-67
2022/01/06 08:56:22;;;;;;;11.10;2.10;;;;;;;;;;8365966;28;20052;-66
2022/01/06 09:00:22;;;;;;;15.48;1.83;;;;;;;;;;8364618;28;20490;-67
2022/01/06 09:04:23;;;;;;;6.85;1.52;;;;;;;;;;8365146;28;20028;-66
2022/01/06 09:08:23;;;;;;;12.00;2.25;;;;;;;;;;8365041;28;20063;-66
2022/01/06 09:12:23;;;;;;;12.30;1.88;;;;;;;;;;8362956;28;20029;-66
2022/01/06 09:16:24;;;;;;;8.60;1.60;;;;;;;;;;8363930;28;20032;-66
2022/01/06 09:20:24;;;;;;;10.82;1.65;;;;;;;;;;8358278;28;20542;-66
2022/01/06 09:24:24;;;;;;;16.02;1.95;;;;;;;;;;8364571;28;20046;-66
2022/01/06 09:28:25;;;;;;;8.85;1.70;;;;;;;;;;8363228;28;20035;-67
2022/01/06 09:32:25;;;;;;;11.02;1.58;;;;;;;;;;8361851;28;21187;-66
2022/01/06 09:36:27;;;;;;;7.22;1.20;;;;;;;;;;8363749;28;20021;-67
2022/01/06 09:40:28;;;;;;;7.75;1.70;;;;;;;;;;8364847;28;20435;-67
2022/01/06 09:44:28;;;;;;;8.82;2.20;;;;;;;;;;8362658;28;20024;-67
2022/01/06 09:48:29;;;;;;;10.25;1.65;;;;;;;;;;8361704;28;20967;-67
2022/01/06 09:52:29;;;;;;;17.08;1.85;;;;;;;;;;8362332;28;20039;-67
2022/01/06 09:56:29;;;;;;;10.87;1.40;;;;;;;;;;8362771;28;20580;-67
2022/01/06 10:00:30;;;;;;;12.05;2.28;;;;;;;;;;8363206;28;20255;-66
2022/01/06 10:04:31;;;;;;;10.80;1.55;;;;;;;;;;8362171;28;20024;-66
2022/01/06 10:08:31;;;;;;;7.53;1.10;;;;;;;;;;8361288;28;20063;-67
2022/01/06 10:12:32;;;;;;;10.27;1.98;;;;;;;;;;8356717;28;20127;-67
2022/01/06 10:16:33;;;;;;;5.95;1.50;;;;;;;;;;8356046;28;20043;-67
2022/01/06 10:20:33;;;;;;;8.77;1.75;;;;;;;;;;8355488;28;20032;-67
2022/01/06 10:24:33;;;;;;;8.48;2.50;;;;;;;;;;8357884;28;20395;-66
2022/01/06 10:28:35;;;;;;;16.48;2.13;;;;;;;;;;8354852;28;20125;-66
2022/01/06 10:32:37;;;;;;;8.55;1.83;;;;;;;;;;8355346;28;20029;-66
2022/01/06 10:36:39;;;;;;;9.25;1.70;;;;;;;;;;8357525;28;20602;-66
2022/01/06 10:40:39;;;;;;;8.73;1.67;;;;;;;;;;8356360;28;20035;-67
2022/01/06 10:44:51;;;;;;;7.33;1.77;;;;;;;;;;8356244;28;20032;-68
2022/01/06 10:48:55;;;;;;;7.38;1.75;;;;;;;;;;8354367;28;20290;-67
2022/01/06 10:52:55;;;;;;;;;;;;;;;;;;8358043;28;20021;-67
2022/01/06 10:56:58;;;;;;;15.73;2.70;;;;;;;;;;8356473;28;19962;-67
2022/01/06 11:01:01;;;;;;;10.32;2.47;;;;;;;;;;8355032;28;20556;-67
2022/01/06 11:05:01;;;;;;;5.13;1.65;;;;;;;;;;8355696;28;20024;-67
2022/01/06 11:09:02;;;;;;;9.15;2.00;;;;;;;;;;8357287;28;20211;-67
2022/01/06 11:13:03;;;;;;;14.97;3.10;;;;;;;;;;8341521;28;20027;-67
2022/01/06 11:17:03;;;;;;;12.32;1.90;;;;;;;;;;8351494;28;20301;-67
2022/01/06 11:21:05;;;;;;;5.93;1.60;;;;;;;;;;8354348;28;20024;-67
2022/01/06 11:25:05;;;;;;;8.27;1.70;;;;;;;;;;8353025;28;20032;-67
2022/01/06 11:29:06;;;;;;;6.90;1.40;;;;;;;;;;8353768;28;20652;-67
2022/01/06 11:33:06;;;;;;;8.82;1.70;;;;;;;;;;8352414;28;20032;-67
2022/01/06 11:37:10;;;;;;;9.35;1.83;;;;;;;;;;8355612;28;20441;-67
2022/01/06 11:41:11;;;;;;;13.77;2.30;;;;;;;;;;8356361;28;20140;-67
2022/01/06 11:45:17;;;;;;;11.05;2.03;;;;;;;;;;8354445;28;20025;-67
2022/01/06 11:49:33;;;;;;;5.30;1.20;;;;;;;;;;8345035;28;20090;-67
2022/01/06 11:53:33;;;;;;;7.63;1.88;;;;;;;;;;8362625;28;20073;-67
2022/01/06 11:57:35;;;;;;;9.43;1.92;;;;;;;;;;8360708;28;20032;-67
2022/01/06 12:01:49;;;;;;;8.30;1.95;;;;;;;;;;8362464;28;20111;-67
2022/01/06 12:05:52;;;;;;;8.70;2.22;;;;;;;;;;8359872;28;20068;-67
2022/01/06 12:10:00;;;;;;;12.43;1.80;;;;;;;;;;8361900;28;20060;-68
2022/01/06 12:14:01;;;;;;;8.95;2.30;;;;;;;;;;8360614;28;20147;-67
2022/01/06 12:18:01;;;;;;;11.38;2.20;;;;;;;;;;8354522;28;20040;-67
2022/01/06 12:22:03;;;;;;;12.50;2.22;;;;;;;;;;8361219;28;20082;-67
2022/01/06 12:26:07;;;;;;;9.77;2.72;;;;;;;;;;8359028;28;20105;-67
2022/01/06 12:30:07;;;;;;;9.80;2.22;;;;;;;;;;8359603;28;20552;-67
2022/01/06 12:34:09;;;;;;;11.40;2.15;;;;;;;;;;8359483;28;20455;-67
2022/01/06 12:38:09;;;;;;;9.98;2.13;;;;;;;;;;8360462;28;20821;-67
2022/01/06 12:42:10;;;;;;;12.25;2.38;;;;;;;;;;8358603;28;20129;-67
2022/01/06 12:46:12;;;;;;;10.60;2.13;;;;;;;;;;8359600;28;20487;-68
2022/01/06 12:50:12;;;;;;;8.55;2.10;;;;;;;;;;8359808;28;20028;-68
2022/01/06 12:54:15;;;;;;;9.70;2.10;;;;;;;;;;8360318;28;20051;-67
2022/01/06 12:58:23;;;;;;;6.40;1.60;;;;;;;;;;8358553;28;20034;-67
2022/01/06 13:02:23;;;;;;;10.68;2.17;;;;;;;;;;8358359;28;20044;-67
2022/01/06 13:06:27;;;;;;;7.93;1.75;;;;;;;;;;8358636;28;20480;-68
2022/01/06 13:10:28;;;;;;;9.68;2.25;;;;;;;;;;8360327;28;20466;-67
2022/01/06 13:14:29;;;;;;;11.73;2.30;;;;;;;;;;8357835;28;20047;-67
2022/01/06 13:18:29;;;;;;;10.13;2.67;;;;;;;;;;8357518;28;20082;-67
2022/01/06 13:23:00;;;;;;;10.25;2.28;;;;;;;;;;8357577;28;20025;-67
2022/01/06 13:27:02;;;;;;;7.63;1.92;;;;;;;;;;8357837;28;20667;-67
2022/01/06 13:31:02;;;;;;;7.53;2.15;;;;;;;;;;8359153;28;20048;-67
2022/01/06 13:35:08;;;;;;;9.05;2.15;;;;;;;;;;8357670;28;20501;-67
2022/01/06 13:39:11;;;;;;;10.93;2.17;;;;;;;;;;8358763;28;20893;-67
2022/01/06 13:43:17;;;;;;;10.90;2.17;;;;;;;;;;8362497;28;20070;-63
2022/01/06 13:47:27;;;;;;;11.65;2.15;;;;;;;;;;8361717;28;20834;-67
2022/01/06 13:51:28;;;;;;;15.50;3.03;;;;;;;;;;8361550;28;20020;-67
2022/01/06 13:55:28;;;;;;;13.52;2.40;;;;;;;;;;8362581;28;20021;-67
2022/01/06 13:59:28;;;;;;;14.25;2.88;;;;;;;;;;8362477;28;20031;-67
2022/01/06 14:03:32;;;;;;;12.90;2.70;;;;;;;;;;8362352;28;20048;-67
2022/01/06 14:07:32;;;;;;;10.67;2.93;;;;;;;;;;8361620;28;20028;-66
2022/01/06 14:11:32;;;;;;;9.57;3.70;;;;;;;;;;8357569;28;20376;-67
2022/01/06 14:15:32;;;;;;;14.15;2.55;;;;;;;;;;8356392;28;20086;-66
2022/01/06 14:19:36;;;;;;;12.00;2.85;;;;;;;;;;8354608;28;20032;-66
2022/01/06 14:23:36;;;;;;;9.80;2.80;;;;;;;;;;8356243;28;20094;-66
2022/01/06 14:27:36;;;;;;;9.90;3.33;;;;;;;;;;8355486;28;20359;-66
2022/01/06 14:31:37;;;;;;;9.98;2.70;;;;;;;;;;8350087;28;20033;-66
2022/01/06 14:35:37;;;;;;;13.32;3.15;;;;;;;;;;8354825;28;20016;-67
2022/01/06 14:39:37;;;;;;;6.78;2.40;;;;;;;;;;8356455;28;20024;-66
2022/01/06 14:43:37;;;;;;;15.55;2.42;;;;;;;;;;8355499;28;20724;-67
2022/01/06 14:47:39;;;;;;;9.50;2.30;;;;;;;;;;8355056;28;20044;-67
2022/01/06 14:51:39;;;;;;;11.80;2.38;;;;;;;;;;8358798;28;20057;-66
2022/01/06 14:55:39;;;;;;;11.97;3.30;;;;;;;;;;8360898;28;20280;-67
2022/01/06 14:59:39;;;;;;;17.90;5.55;;;;;;;;;;8360403;28;20266;-66
2022/01/06 15:03:40;;;;;;;27.15;7.40;;;;;;;;;;8359427;28;20044;-66
2022/01/06 15:07:40;;;;;;;13.63;5.40;;;;;;;;;;8357281;28;20033;-67
2022/01/06 15:11:40;;;;;;;12.82;3.22;;;;;;;;;;8362645;28;20032;-67
2022/01/06 15:15:41;;;;;;;15.23;3.20;;;;;;;;;;8357519;28;20074;-67
2022/01/06 15:19:41;;;;;;;27.70;6.85;;;;;;;;;;8362399;28;20889;-66
2022/01/06 15:23:41;;;;;;;15.27;4.47;;;;;;;;;;8366778;28;20469;-66
2022/01/06 15:27:43;;;;;;;11.80;3.55;;;;;;;;;;8366691;28;20287;-66
2022/01/06 15:31:43;;;;;;;16.20;4.55;;;;;;;;;;8367286;28;20262;-66
2022/01/06 15:35:45;;;;;;;14.50;5.85;;;;;;;;;;8358030;28;20039;-67
2022/01/06 15:39:45;;;;;;;12.88;4.88;;;;;;;;;;8366238;28;20871;-66
2022/01/06 15:43:46;;;;;;;13.23;3.33;;;;;;;;;;8365945;28;20035;-67
2022/01/06 15:47:47;;;;;;;8.60;2.55;;;;;;;;;;8365582;28;20505;-66
2022/01/06 15:51:47;;;;;;;9.30;2.88;;;;;;;;;;8367411;28;20021;-67
2022/01/06 15:55:47;;;;;;;8.43;2.42;;;;;;;;;;8367182;28;20107;-66
2022/01/06 15:59:58;;;;;;;10.20;3.00;;;;;;;;;;8365325;28;20024;-67
2022/01/06 16:08:18;;;;;;;10.13;2.67;;;;;;;;;;8365355;28;20093;-66
2022/01/06 16:12:18;;;;;;;8.00;2.30;;;;;;;;;;8365744;28;20056;-66
2022/01/06 16:16:18;;;;;;;6.47;2.03;;;;;;;;;;8364430;28;20161;-66
2022/01/06 16:20:18;;;;;;;7.50;2.38;;;;;;;;;;8363811;28;20028;-66
2022/01/06 16:24:18;;;;;;;5.95;2.10;;;;;;;;;;8364601;28;20036;-66
2022/01/06 16:28:19;;;;;;;7.15;1.95;;;;;;;;;;8364757;28;20254;-66
2022/01/06 16:32:20;;;;;;;8.32;2.65;;;;;;;;;;8363701;28;20043;-66
2022/01/06 16:36:20;;;;;;;10.88;3.90;;;;;;;;;;8363336;28;20035;-66
2022/01/06 16:40:21;;;;;;;7.15;2.50;;;;;;;;;;8364904;28;20028;-66
2022/01/06 16:44:21;;;;;;;4.70;1.75;;;;;;;;;;8364247;28;20047;-66
2022/01/06 16:48:21;;;;;;;7.40;1.52;;;;;;;;;;8362488;28;20927;-66
2022/01/06 16:52:22;;;;;;;7.45;1.73;;;;;;;;;;8362630;28;20021;-66
2022/01/06 16:56:22;;;;;;;4.68;1.90;;;;;;;;;;8361977;28;20569;-67
2022/01/06 17:00:22;;;;;;;7.88;3.17;;;;;;;;;;8363511;28;20041;-66
2022/01/06 17:04:22;;;;;;;6.53;2.38;;;;;;;;;;8362680;28;20329;-66
2022/01/06 17:08:23;;;;;;;8.93;3.80;;;;;;;;;;8364513;28;20481;-66
2022/01/06 17:12:23;;;;;;;12.52;4.15;;;;;;;;;;8363233;28;20313;-66
2022/01/06 17:16:23;;;;;;;11.35;3.70;;;;;;;;;;8361891;28;20115;-67
2022/01/06 17:20:23;;;;;;;10.88;2.30;;;;;;;;;;8359863;28;20061;-66
2022/01/06 17:24:24;;;;;;;6.65;3.10;;;;;;;;;;8361570;28;20035;-66
2022/01/06 17:28:24;;;;;;;7.65;3.05;;;;;;;;;;8362655;28;20029;-66
2022/01/06 17:32:25;;;;;;;13.68;7.65;;;;;;;;;;8362261;28;20086;-66
2022/01/06 17:36:27;;;;;;;32.35;17.70;;;;;;;;;;8362064;28;20117;-66
2022/01/06 17:40:28;;;;;;;20.83;9.23;;;;;;;;;;8362842;28;20032;-66
2022/01/06 17:44:28;;;;;;;11.75;5.30;;;;;;;;;;8362214;28;20898;-66
2022/01/06 17:48:28;;;;;;;8.30;4.47;;;;;;;;;;8357768;28;20688;-66
2022/01/06 17:52:28;;;;;;;6.88;2.63;;;;;;;;;;8361444;28;20329;-66
2022/01/06 17:56:29;;;;;;;4.30;2.78;;;;;;;;;;8360348;28;20087;-66
2022/01/06 18:00:29;;;;;;;8.03;2.80;;;;;;;;;;8360303;28;20259;-66
2022/01/06 18:04:31;;;;;;;7.80;2.70;;;;;;;;;;8361124;28;20374;-65
2022/01/06 18:12:31;;;;;;;7.82;2.53;;;;;;;;;;8361159;28;20031;-66
2022/01/06 18:16:32;;;;;;;9.63;2.80;;;;;;;;;;8360944;28;20035;-66
2022/01/06 18:20:32;;;;;;;7.55;2.90;;;;;;;;;;8362394;28;20024;-65
2022/01/06 18:24:32;;;;;;;8.90;2.85;;;;;;;;;;8357301;28;20024;-66
2022/01/06 18:28:33;;;;;;;8.90;3.00;;;;;;;;;;8361889;28;20294;-65
2022/01/06 18:32:33;;;;;;;9.45;3.00;;;;;;;;;;8358897;28;20032;-66
2022/01/06 18:36:33;;;;;;;7.18;2.25;;;;;;;;;;8362831;28;20067;-66
2022/01/06 18:40:34;;;;;;;5.10;2.47;;;;;;;;;;8358927;28;20504;-66
2022/01/06 18:44:36;;;;;;;5.97;1.98;;;;;;;;;;8354991;28;20305;-66
2022/01/06 18:48:36;;;;;;;5.50;2.00;;;;;;;;;;8354775;28;20477;-66
2022/01/06 18:52:37;;;;;;;5.00;1.75;;;;;;;;;;8355729;28;20442;-66
2022/01/06 18:56:37;;;;;;;4.75;1.80;;;;;;;;;;8357404;28;20726;-67
2022/01/06 19:00:38;;;;;;;12.68;2.47;;;;;;;;;;8355572;28;20028;-66
2022/01/06 19:04:38;;;;;;;6.22;1.90;;;;;;;;;;8353758;28;20457;-66
2022/01/06 19:08:38;;;;;;;6.05;1.45;;;;;;;;;;8355971;28;20633;-66
2022/01/06 19:12:39;;;;;;;6.85;1.80;;;;;;;;;;8355076;28;20028;-66
2022/01/06 19:16:42;;;;;;;7.07;2.23;;;;;;;;;;8353357;28;20082;-66
2022/01/06 19:20:42;;;;;;;6.35;2.13;;;;;;;;;;8355737;28;20262;-66
2022/01/06 19:24:42;;;;;;;8.68;2.83;;;;;;;;;;8354930;28;20511;-66
2022/01/06 19:28:42;;;;;;;10.95;2.85;;;;;;;;;;8353387;28;20276;-66
2022/01/06 19:32:44;;;;;;;8.55;2.65;;;;;;;;;;8355025;28;20047;-66
2022/01/06 19:36:44;;;;;;;6.00;2.53;;;;;;;;;;8354102;28;20020;-66
2022/01/06 19:40:44;;;;;;;4.30;2.50;;;;;;;;;;8353190;28;20030;-66
2022/01/06 19:44:44;;;;;;;5.97;3.15;;;;;;;;;;8355222;28;20028;-66
2022/01/06 19:48:44;;;;;;;9.13;3.42;;;;;;;;;;8353098;28;20040;-67
2022/01/06 19:52:45;;;;;;;11.60;2.75;;;;;;;;;;8355701;28;20116;-66
2022/01/06 19:56:45;;;;;;;10.43;2.55;;;;;;;;;;8355081;28;20016;-66
2022/01/06 20:00:46;;;;;;;7.95;2.33;;;;;;;;;;8352815;28;20490;-66
2022/01/06 20:04:47;;;;;;;10.30;2.83;;;;;;;;;;8354306;28;20024;-65
2022/01/06 20:08:47;;;;;;;11.05;2.60;;;;;;;;;;8360076;28;20514;-66
2022/01/06 20:12:48;;;;;;;14.43;3.50;;;;;;;;;;8358667;28;20029;-66
2022/01/06 20:16:48;;;;;;;8.98;2.70;;;;;;;;;;8358769;28;20267;-66
2022/01/06 20:20:48;;;;;;;6.32;2.53;;;;;;;;;;8359561;28;20489;-66
2022/01/06 20:24:48;;;;;;;12.75;3.28;;;;;;;;;;8360012;28;20044;-66
2022/01/06 20:28:51;;;;;;;7.57;3.20;;;;;;;;;;8359276;28;20688;-66
2022/01/06 20:32:51;;;;;;;9.23;3.70;;;;;;;;;;8356827;28;20033;-66
2022/01/06 20:36:52;;;;;;;14.15;4.32;;;;;;;;;;8359763;28;20037;-66
2022/01/06 20:40:52;;;;;;;9.07;4.32;;;;;;;;;;8358714;28;20195;-66
2022/01/06 20:44:52;;;;;;;14.68;4.80;;;;;;;;;;8354098;28;20036;-66
2022/01/06 20:53:15;;;;;;;11.18;4.40;;;;;;;;;;8358279;28;20109;-66
2022/01/06 20:57:15;;;;;;;16.30;5.32;;;;;;;;;;8358617;28;20272;-67
2022/01/06 21:01:16;;;;;;;13.13;5.18;;;;;;;;;;8358712;28;20045;-66
2022/01/06 21:05:16;;;;;;;20.13;6.15;;;;;;;;;;8356479;28;20029;-66
2022/01/06 21:09:16;;;;;;;18.75;6.60;;;;;;;;;;8360055;28;20485;-66
2022/01/06 21:13:16;;;;;;;17.63;5.45;;;;;;;;;;8359288;28;20537;-66
2022/01/06 21:17:17;;;;;;;12.85;5.22;;;;;;;;;;8356335;28;20033;-66
2022/01/06 21:21:20;;;;;;;21.98;6.03;;;;;;;;;;8360285;28;20040;-66
2022/01/06 21:25:20;;;;;;;20.88;6.07;;;;;;;;;;8356982;28;20442;-66
2022/01/06 21:29:21;;;;;;;23.63;5.78;;;;;;;;;;8374159;28;20115;-66
2022/01/06 21:33:21;;;;;;;17.90;6.45;;;;;;;;;;8356804;28;20563;-66
2022/01/06 21:37:21;;;;;;;19.30;6.10;;;;;;;;;;8357042;28;20059;-66
2022/01/06 21:41:21;;;;;;;18.15;5.72;;;;;;;;;;8360092;28;20258;-66
2022/01/06 21:45:22;;;;;;;19.77;5.90;;;;;;;;;;8357334;28;20133;-66
2022/01/06 21:49:22;;;;;;;13.40;4.95;;;;;;;;;;8356494;28;20040;-66
2022/01/06 21:53:26;;;;;;;13.50;4.88;;;;;;;;;;8358976;28;20023;-66
2022/01/06 21:57:27;;;;;;;14.83;5.20;;;;;;;;;;8358309;28;20094;-66
2022/01/06 22:01:27;;;;;;;18.75;5.55;;;;;;;;;;8357137;28;20412;-66
2022/01/06 22:05:28;;;;;;;14.95;4.93;;;;;;;;;;8357288;28;20032;-66
2022/01/06 22:09:28;;;;;;;10.52;4.40;;;;;;;;;;8357903;28;20410;-66
2022/01/06 22:13:28;;;;;;;13.77;5.10;;;;;;;;;;8357324;28;20020;-66
2022/01/06 22:17:28;;;;;;;11.88;4.82;;;;;;;;;;8356526;28;20259;-66
2022/01/06 22:21:30;;;;;;;9.93;3.80;;;;;;;;;;8355840;28;20022;-66
2022/01/06 22:25:30;;;;;;;13.02;4.30;;;;;;;;;;8357974;28;20328;-66
2022/01/06 22:29:30;;;;;;;13.70;4.13;;;;;;;;;;8356891;28;20548;-66
2022/01/06 22:33:30;;;;;;;15.57;4.80;;;;;;;;;;8355236;28;20028;-66
2022/01/06 22:37:31;;;;;;;9.65;4.03;;;;;;;;;;8357359;28;20511;-66
2022/01/06 22:41:32;;;;;;;16.38;4.85;;;;;;;;;;8356556;28;20496;-66
2022/01/06 22:45:33;;;;;;;10.38;3.83;;;;;;;;;;8354188;28;20047;-66
2022/01/06 22:49:33;;;;;;;12.80;4.10;;;;;;;;;;8357222;28;20490;-66
2022/01/06 22:53:33;;;;;;;11.02;3.90;;;;;;;;;;8355591;28;20369;-66
2022/01/06 22:57:34;;;;;;;15.48;4.40;;;;;;;;;;8356154;28;20107;-66
2022/01/06 23:01:34;;;;;;;15.73;3.78;;;;;;;;;;8355914;28;20124;-66
2022/01/06 23:05:34;;;;;;;13.85;3.83;;;;;;;;;;8354502;28;20051;-66
2022/01/06 23:09:35;;;;;;;12.23;4.30;;;;;;;;;;8356102;28;20153;-66
2022/01/06 23:13:35;;;;;;;12.63;3.67;;;;;;;;;;8354850;28;20509;-66
2022/01/06 23:17:35;;;;;;;12.63;3.80;;;;;;;;;;8354456;28;20178;-66
2022/01/06 23:21:36;;;;;;;7.10;3.05;;;;;;;;;;8357916;28;20016;-63
2022/01/06 23:25:37;;;;;;;10.50;4.03;;;;;;;;;;8356428;28;20077;-65
2022/01/06 23:29:38;;;;;;;11.27;3.67;;;;;;;;;;8354943;28;20111;-65
2022/01/06 23:33:39;;;;;;;6.90;2.90;;;;;;;;;;8354543;28;20504;-66
2022/01/06 23:37:39;;;;;;;11.63;3.28;;;;;;;;;;8355851;28;20163;-66
2022/01/06 23:41:41;;;;;;;8.48;3.90;;;;;;;;;;8359795;28;20047;-66
2022/01/06 23:45:41;;;;;;;13.75;4.18;;;;;;;;;;8360035;28;20029;-66
2022/01/06 23:49:41;;;;;;;11.15;3.85;;;;;;;;;;8361208;28;20144;-66
2022/01/06 23:53:41;;;;;;;11.83;4.60;;;;;;;;;;8361977;28;20025;-66
2022/01/06 23:57:42;;;;;;;11.82;4.70;;;;;;;;;;8361459;28;20804;-66
